Time;durP1;ratioP1;P1;durP2;ratioP2;P2;SDS_P1;SDS_P2;PMS_P1;PMS_P2;Temp;Humidity;BMP_temperature;BMP_pressure;BME280_temperature;BME280_humidity;BME280_pressure;Samples;Min_cycle;Max_cycle;Signal;HPM_P1;HPM_P2
2022/07/10 00:02:51;;;;;;;;;;;;;;;;;;;;;
2022/07/10 00:06:14;;;;;;;5.40;2.50;;;;;;;16.57;62.58;100500.40;108215;1279;23704;-79
2022/07/10 00:10:12;;;;;;;4.10;2.40;;;;;;;16.56;62.73;100498.84;108036;1280;23718;-78
2022/07/10 00:12:41;;;;;;;3.70;2.20;;;;;;;16.53;62.79;100492.04;107816;1284;22200;-80
2022/07/10 00:18:12;;;;;;;3.20;2.20;;;;;;;16.48;62.85;100496.41;108057;1283;22011;-79
2022/07/10 00:20:51;;;;;;;2.90;2.10;;;;;;;16.46;62.99;100496.83;108075;1276;22063;-78
2022/07/10 00:24:04;;;;;;;3.00;2.00;;;;;;;16.45;63.20;100495.55;108380;1276;23725;-79
2022/07/10 00:27:14;;;;;;;3.40;2.10;;;;;;;16.42;63.30;100491.86;108600;1270;23031;-79
2022/07/10 00:31:13;;;;;;;;;;;;;;;;;;;;;
2022/07/10 00:34:12;;;;;;;2.60;1.80;;;;;;;16.37;63.69;100487.86;108928;1269;22002;-79
2022/07/10 00:37:36;;;;;;;3.50;2.30;;;;;;;16.37;63.76;100490.41;108451;1273;22010;-80
2022/07/10 00:40:41;;;;;;;2.70;1.90;;;;;;;16.33;63.82;100488.19;108398;1273;22001;-78
2022/07/10 00:44:09;;;;;;;3.40;2.10;;;;;;;16.35;64.10;100487.48;108261;1279;23621;-78
2022/07/10 00:47:33;;;;;;;3.10;2.40;;;;;;;16.31;64.18;100491.50;108237;1276;22004;-80
2022/07/10 00:51:10;;;;;;;4.20;2.90;;;;;;;16.26;64.46;100496.81;108062;1279;23043;-79
2022/07/10 00:54:10;;;;;;;3.20;2.20;;;;;;;16.26;64.66;100495.05;108156;1279;24777;-78
2022/07/10 01:00:09;;;;;;;3.80;2.10;;;;;;;16.18;65.33;100494.95;108072;1279;22009;-79
2022/07/10 01:03:38;;;;;;;3.30;2.00;;;;;;;16.16;65.48;100496.30;108765;1273;23697;-79
2022/07/10 01:06:38;;;;;;;5.00;2.10;;;;;;;16.15;65.83;100492.73;108937;1272;23072;-80
2022/07/10 01:10:30;;;;;;;;;;;;;;;;;;;;;
2022/07/10 01:14:40;;;;;;;;;;;;;;;;;;;;;
2022/07/10 01:17:59;;;;;;;2.80;1.70;;;;;;;15.90;67.06;100478.71;110334;1257;21987;-80
2022/07/10 01:22:12;;;;;;;3.80;1.90;;;;;;;15.79;67.48;100476.09;109227;1267;22440;-79
2022/07/10 01:24:58;;;;;;;;;;;;;;;;;;;;;
2022/07/10 01:28:53;;;;;;;3.30;1.60;;;;;;;15.66;67.97;100467.27;109158;1266;21991;-79
2022/07/10 01:32:03;;;;;;;;;;;;;;;;;;;;;
2022/07/10 01:39:34;;;;;;;;;;;;;;;;;;;;;
2022/07/10 01:42:53;;;;;;;;;;;;;;;;;;;;;
2022/07/10 01:46:18;;;;;;;4.20;1.90;;;;;;;15.47;69.05;100452.48;110044;1260;22022;-80
2022/07/10 01:49:52;;;;;;;;;;;;;;;;;;;;;
2022/07/10 01:53:08;;;;;;;;;;;;;;;;;;;;;
2022/07/10 01:56:38;;;;;;;4.60;2.20;;;;;;;15.40;69.42;100470.65;109096;1270;23065;-80
2022/07/10 01:59:58;;;;;;;2.60;1.60;;;;;;;15.33;69.50;100467.47;108882;1272;22228;-79
2022/07/10 02:06:51;;;;;;;4.00;2.20;;;;;;;15.25;69.89;100471.07;108099;1284;21995;-79
2022/07/10 02:10:49;;;;;;;;;;;;;;;;;;;;;
2022/07/10 02:17:30;;;;;;;5.40;1.70;;;;;;;15.26;70.62;100463.86;106185;1300;22033;-80
2022/07/10 02:20:34;;;;;;;6.00;1.80;;;;;;;15.28;70.67;100464.17;107000;1291;22820;-80
2022/07/10 02:23:46;;;;;;;;;;;;;;;;;;;;;
2022/07/10 02:26:33;;;;;;;3.40;1.80;;;;;;;15.31;71.04;100465.05;107529;1290;22027;-80
2022/07/10 02:29:55;;;;;;;5.60;2.50;;;;;;;15.28;71.09;100456.34;107619;1286;22116;-80
2022/07/10 02:32:58;;;;;;;3.40;1.60;;;;;;;15.30;71.33;100457.34;107814;1286;22500;-80
2022/07/10 02:36:14;;;;;;;;;;;;;;;;;;;;;
2022/07/10 02:39:26;;;;;;;;;;;;;;;;;;;;;
2022/07/10 02:42:30;;;;;;;6.90;2.50;;;;;;;15.28;71.14;100454.92;108216;1281;23749;-80
2022/07/10 02:45:15;;;;;;;6.30;2.50;;;;;;;15.27;71.38;100455.36;108387;1278;22769;-81
2022/07/10 02:48:04;;;;;;;4.70;2.10;;;;;;;15.27;71.25;100456.17;108671;1267;21981;-81
2022/07/10 02:51:29;;;;;;;;;;;;;;;;;;;;;
2022/07/10 02:55:15;;;;;;;;;;;;;;;;;;;;;
2022/07/10 02:59:04;;;;;;;2.90;1.50;;;;;;;15.12;71.73;100460.54;108514;1279;22149;-80
2022/07/10 03:02:31;;;;;;;4.90;1.90;;;;;;;15.07;72.01;100460.63;108096;1285;23075;-79
2022/07/10 03:05:49;;;;;;;;;;;;;;;;;;;;;
2022/07/10 03:08:50;;;;;;;6.10;1.80;;;;;;;15.01;71.86;100467.89;107685;1282;22025;-79
2022/07/10 03:12:02;;;;;;;4.80;1.80;;;;;;;14.98;71.83;100466.23;107826;1285;22019;-81
2022/07/10 03:15:07;;;;;;;6.20;1.90;;;;;;;14.95;71.95;100464.45;107528;1288;22065;-78
2022/07/10 03:17:56;;;;;;;3.60;1.80;;;;;;;14.93;71.76;100468.08;107734;1285;22017;-80
2022/07/10 03:20:43;;;;;;;8.70;2.30;;;;;;;14.88;71.30;100470.00;108562;1273;21988;-78
2022/07/10 03:24:26;;;;;;;;;;;;;;;;;;;;;
2022/07/10 03:27:28;;;;;;;;;;;;;;;;;;;;;
2022/07/10 03:30:19;;;;;;;;;;;;;;;;;;;;;
2022/07/10 03:33:43;;;;;;;;;;;;;;;;;;;;;
2022/07/10 03:36:56;;;;;;;;;;;;;;;;;;;;;
2022/07/10 03:40:31;;;;;;;;;;;;;;;;;;;;;
2022/07/10 03:44:31;;;;;;;;;;;;;;;;;;;;;
2022/07/10 03:48:53;;;;;;;4.60;1.40;;;;;;;14.57;70.79;100451.58;108018;1282;23050;-79
2022/07/10 03:51:50;;;;;;;5.30;1.50;;;;;;;14.58;70.60;100456.30;107343;1291;22074;-79
2022/07/10 03:54:58;;;;;;;;;;;;;;;;;;;;;
2022/07/10 03:58:34;;;;;;;8.30;2.00;;;;;;;14.56;70.27;100458.80;107374;1287;23073;-80
2022/07/10 04:01:33;;;;;;;;;;;;;;;;;;;;;
2022/07/10 04:04:56;;;;;;;7.50;2.10;;;;;;;14.53;69.78;100460.42;108341;1275;21983;-80
2022/07/10 04:08:10;;;;;;;;;;;;;;;;;;;;;
2022/07/10 04:11:29;;;;;;;7.20;1.80;;;;;;;14.54;69.51;100459.48;108350;1276;23051;-78
2022/07/10 04:14:51;;;;;;;327.20;84.30;;;;;;;14.55;69.50;100456.67;108473;1276;22518;-79
2022/07/10 04:18:29;;;;;;;13.90;3.10;;;;;;;14.57;69.32;100455.30;108602;1276;24441;-80
2022/07/10 04:22:39;;;;;;;8.80;1.90;;;;;;;14.65;69.35;100461.48;108500;1279;22244;-80
2022/07/10 04:26:10;;;;;;;7.70;2.00;;;;;;;14.72;69.50;100458.09;108174;1285;22019;-80
2022/07/10 04:29:32;;;;;;;10.30;2.80;;;;;;;14.83;69.25;100457.23;108024;1279;22888;-79
2022/07/10 04:33:16;;;;;;;8.20;2.40;;;;;;;14.94;69.02;100463.82;108218;1279;22099;-79
2022/07/10 04:36:26;;;;;;;8.30;1.80;;;;;;;15.01;68.53;100470.27;108425;1282;22004;-79
2022/07/10 04:40:05;;;;;;;9.70;1.90;;;;;;;15.02;67.88;100466.00;108002;1285;22033;-80
2022/07/10 04:43:06;;;;;;;5.40;1.70;;;;;;;14.95;67.54;100463.91;107685;1286;23770;-80
2022/07/10 04:45:45;;;;;;;8.60;1.90;;;;;;;14.95;67.58;100465.47;108048;1282;22007;-80
2022/07/10 04:49:21;;;;;;;11.50;2.70;;;;;;;15.02;67.83;100463.02;108113;1283;21999;-78
2022/07/10 04:52:01;;;;;;;7.50;1.80;;;;;;;15.07;67.99;100460.09;108052;1285;22792;-75
2022/07/10 04:55:23;;;;;;;10.80;2.60;;;;;;;15.16;67.85;100462.45;107692;1285;23606;-79
2022/07/10 04:58:48;;;;;;;;;;;;;;;;;;;;;
2022/07/10 05:02:21;;;;;;;;;;;;;;;;;;;;;
2022/07/10 05:05:13;;;;;;;8.50;2.40;;;;;;;15.25;66.48;100460.79;108032;1283;22460;-79
2022/07/10 05:07:53;;;;;;;8.40;2.20;;;;;;;15.33;66.79;100457.98;108036;1281;22021;-79
2022/07/10 05:10:50;;;;;;;7.80;2.10;;;;;;;15.47;66.62;100456.25;108069;1280;23090;-79
2022/07/10 05:13:48;;;;;;;;;;;;;;;;;;;;;
2022/07/10 05:17:13;;;;;;;7.40;1.80;;;;;;;15.55;65.66;100450.23;108468;1275;23061;-77
2022/07/10 05:20:42;;;;;;;;;;;;;;;;;;;;;
2022/07/10 05:24:06;;;;;;;10.20;2.20;;;;;;;15.56;65.02;100448.83;108632;1273;23151;-78
2022/07/10 05:27:16;;;;;;;9.40;1.80;;;;;;;15.62;65.00;100451.29;108473;1276;22369;-78
2022/07/10 05:30:44;;;;;;;7.80;2.00;;;;;;;15.65;64.66;100452.98;108606;1276;23813;-79
2022/07/10 05:33:42;;;;;;;6.50;2.10;;;;;;;15.68;64.19;100456.40;108372;1276;22195;-78
2022/07/10 05:37:08;;;;;;;;;;;;;;;15.74;64.30;100461.67;108377;1276;22197;-78
2022/07/10 05:40:09;;;;;;;7.80;2.30;;;;;;;15.71;64.00;100460.92;108080;1282;24342;-78
2022/07/10 05:43:10;;;;;;;9.70;3.20;;;;;;;15.74;63.85;100461.96;108115;1278;22322;-78
2022/07/10 05:46:33;;;;;;;14.20;6.40;;;;;;;15.85;64.11;100463.54;108319;1278;23148;-78
2022/07/10 05:50:08;;;;;;;;;;;;;;;;;;;;;
2022/07/10 05:53:04;;;;;;;7.30;3.10;;;;;;;15.82;62.78;100470.77;108711;1273;21995;-78
2022/07/10 05:55:59;;;;;;;4.30;2.50;;;;;;;15.74;62.55;100467.66;108798;1270;21986;-78
2022/07/10 05:58:40;;;;;;;6.90;2.90;;;;;;;15.71;62.49;100466.10;108889;1267;23870;-78
2022/07/10 06:02:05;;;;;;;6.90;2.70;;;;;;;15.66;62.51;100458.56;108817;1272;21951;-77
2022/07/10 06:05:45;;;;;;;7.70;2.70;;;;;;;15.64;62.92;100458.79;108814;1270;23595;-78
2022/07/10 06:09:18;;;;;;;5.40;1.90;;;;;;;15.69;62.90;100458.79;108801;1269;21977;-78
2022/07/10 06:12:49;;;;;;;7.00;2.50;;;;;;;15.78;63.35;100464.33;108757;1272;23055;-78
2022/07/10 06:16:46;;;;;;;6.80;2.30;;;;;;;15.82;62.61;100462.73;108548;1273;22854;-79
2022/07/10 06:20:02;;;;;;;5.50;1.60;;;;;;;15.87;62.66;100461.36;108372;1273;23084;-77
2022/07/10 06:23:11;;;;;;;6.50;1.80;;;;;;;15.99;62.65;100460.87;108144;1279;23083;-77
2022/07/10 06:26:55;;;;;;;7.30;2.10;;;;;;;16.11;62.51;100458.61;108345;1278;22121;-79
2022/07/10 06:30:20;;;;;;;5.70;1.30;;;;;;;16.24;62.42;100460.65;107964;1282;24364;-78
2022/07/10 06:33:31;;;;;;;4.70;2.00;;;;;;;16.51;62.63;100457.52;108147;1277;21989;-79
2022/07/10 06:36:55;;;;;;;4.60;2.00;;;;;;;16.87;62.65;100459.56;108356;1279;22933;-78
2022/07/10 06:40:07;;;;;;;7.00;1.40;;;;;;;17.22;61.35;100452.00;108348;1276;22034;-78
2022/07/10 06:43:04;;;;;;;9.50;2.30;;;;;;;17.55;60.63;100453.43;108505;1276;22865;-78
2022/07/10 06:49:53;;;;;;;8.50;2.10;;;;;;;17.93;58.05;100456.33;108694;1273;21991;-79
2022/07/10 06:52:55;;;;;;;4.30;1.60;;;;;;;17.90;56.72;100455.83;108938;1270;23770;-78
2022/07/10 06:55:34;;;;;;;8.60;1.80;;;;;;;17.89;56.59;100451.52;108725;1270;21983;-78
2022/07/10 06:58:06;;;;;;;5.30;1.70;;;;;;;17.94;56.97;100453.17;108784;1270;22073;-77
2022/07/10 07:00:39;;;;;;;7.80;1.50;;;;;;;18.16;57.42;100457.90;108855;1270;22424;-78
2022/07/10 07:03:09;;;;;;;6.30;1.50;;;;;;;18.45;57.12;100453.39;108793;1270;23566;-78
2022/07/10 07:05:47;;;;;;;7.70;1.60;;;;;;;18.78;56.69;100449.32;108441;1273;22624;-79
2022/07/10 07:08:23;;;;;;;6.40;2.00;;;;;;;19.15;55.22;100451.45;108445;1275;22763;-79
2022/07/10 07:11:53;;;;;;;;;;;;;;;;;;;;;
2022/07/10 07:14:36;;;;;;;8.30;2.30;;;;;;;19.74;53.27;100447.39;108481;1273;23750;-78
2022/07/10 07:17:23;;;;;;;7.10;2.20;;;;;;;20.01;52.61;100448.89;108456;1273;22894;-78
2022/07/10 07:23:12;;;;;;;5.10;1.30;;;;;;;19.69;49.30;100448.80;108622;1267;22023;-78
2022/07/10 07:25:53;;;;;;;3.30;0.90;;;;;;;19.43;49.67;100449.05;108605;1273;22144;-79
2022/07/10 07:28:42;;;;;;;7.10;1.80;;;;;;;19.13;49.85;100452.79;108730;1270;23807;-78
2022/07/10 07:31:23;;;;;;;;;;;;;;;;;;;;;
2022/07/10 07:34:06;;;;;;;4.10;1.30;;;;;;;18.70;50.77;100448.39;109100;1267;22053;-79
2022/07/10 07:36:47;;;;;;;7.10;2.10;;;;;;;18.48;50.99;100446.30;109092;1267;22857;-78
2022/07/10 07:39:37;;;;;;;3.60;1.50;;;;;;;18.32;51.09;100445.80;109312;1264;21969;-78
2022/07/10 07:42:11;;;;;;;5.70;1.50;;;;;;;18.15;51.12;100444.09;109649;1264;23088;-79
2022/07/10 07:44:43;;;;;;;4.80;1.40;;;;;;;18.03;51.82;100445.18;109369;1259;23694;-78
2022/07/10 07:47:16;;;;;;;6.20;1.60;;;;;;;18.04;52.27;100443.41;110052;1259;22571;-79
2022/07/10 07:49:48;;;;;;;9.80;2.30;;;;;;;18.19;53.47;100438.38;109749;1260;21978;-78
2022/07/10 07:52:22;;;;;;;6.30;1.40;;;;;;;18.53;53.24;100436.37;109882;1259;21965;-81
2022/07/10 07:54:58;;;;;;;5.70;1.70;;;;;;;18.80;52.21;100434.23;109928;1258;22018;-78
2022/07/10 07:57:30;;;;;;;5.80;1.30;;;;;;;18.87;50.32;100434.84;109781;1258;22595;-79
2022/07/10 08:00:00;;;;;;;4.10;1.20;;;;;;;18.70;49.29;100439.42;109883;1260;21974;-79
2022/07/10 08:02:31;;;;;;;3.90;1.20;;;;;;;18.40;49.01;100436.27;109262;1264;22157;-79
2022/07/10 08:05:06;;;;;;;4.50;1.50;;;;;;;18.13;49.41;100435.26;109243;1264;21970;-79
2022/07/10 08:07:46;;;;;;;5.60;1.70;;;;;;;17.96;50.11;100440.79;109058;1267;22074;-78
2022/07/10 08:10:18;;;;;;;7.60;1.50;;;;;;;17.84;50.83;100443.11;108503;1273;21992;-80
2022/07/10 08:12:58;;;;;;;6.10;1.90;;;;;;;17.77;51.23;100444.94;108481;1273;21987;-80
2022/07/10 08:15:34;;;;;;;8.50;1.90;;;;;;;17.80;52.01;100442.09;108472;1273;22807;-79
2022/07/10 08:18:07;;;;;;;7.90;1.40;;;;;;;17.89;52.26;100443.17;108589;1273;23654;-79
2022/07/10 08:20:42;;;;;;;6.70;2.30;;;;;;;17.93;52.09;100451.00;108736;1270;21991;-79
2022/07/10 08:23:17;;;;;;;6.80;1.30;;;;;;;17.81;51.38;100448.63;108612;1273;22047;-79
2022/07/10 08:25:49;;;;;;;3.90;1.40;;;;;;;17.67;51.74;100453.48;108722;1270;22198;-77
2022/07/10 08:28:22;;;;;;;9.20;2.40;;;;;;;17.58;52.22;100452.19;108933;1267;22030;-78
2022/07/10 08:30:55;;;;;;;7.60;2.20;;;;;;;17.46;52.48;100452.48;108963;1267;23792;-79
2022/07/10 08:33:28;;;;;;;6.40;1.60;;;;;;;17.38;52.98;100453.08;109123;1268;22238;-78
2022/07/10 08:36:02;;;;;;;10.00;1.80;;;;;;;17.32;53.42;100452.93;108694;1270;23054;-79
2022/07/10 08:38:53;;;;;;;7.30;2.10;;;;;;;17.27;54.11;100453.11;108921;1270;21981;-78
2022/07/10 08:41:31;;;;;;;4.20;1.40;;;;;;;17.31;54.59;100450.34;108956;1267;22027;-78
2022/07/10 08:44:05;;;;;;;14.50;3.30;;;;;;;17.38;54.68;100454.06;109223;1264;22867;-79
2022/07/10 08:46:44;;;;;;;4.90;1.60;;;;;;;17.46;54.85;100452.02;109370;1264;22508;-79
2022/07/10 08:49:17;;;;;;;6.80;1.90;;;;;;;17.69;55.54;100451.58;108904;1270;23731;-80
2022/07/10 08:52:13;;;;;;;7.30;1.60;;;;;;;18.13;55.95;100450.10;108896;1270;23075;-78
2022/07/10 08:54:43;;;;;;;5.50;1.40;;;;;;;18.64;54.34;100444.11;108811;1270;22058;-79
2022/07/10 08:57:17;;;;;;;5.90;1.70;;;;;;;18.86;52.14;100447.88;108978;1270;23666;-79
2022/07/10 09:00:00;;;;;;;5.60;1.40;;;;;;;18.77;50.53;100450.16;108523;1273;23005;-78
2022/07/10 09:02:32;;;;;;;9.60;1.80;;;;;;;18.54;50.40;100446.98;108345;1276;23617;-78
2022/07/10 09:05:08;;;;;;;5.30;1.20;;;;;;;18.37;50.92;100451.30;108371;1276;22026;-78
2022/07/10 09:07:43;;;;;;;5.20;1.20;;;;;;;18.29;51.62;100449.14;107880;1281;22004;-79
2022/07/10 09:10:15;;;;;;;9.00;1.50;;;;;;;18.28;51.62;100447.21;108188;1281;22984;-78
2022/07/10 09:13:14;;;;;;;4.60;1.50;;;;;;;18.29;51.82;100451.94;107855;1284;23729;-79
2022/07/10 09:15:49;;;;;;;4.50;1.40;;;;;;;18.36;51.80;100454.98;108247;1279;22115;-77
2022/07/10 09:18:25;;;;;;;3.00;1.20;;;;;;;18.30;51.01;100457.27;108560;1273;23184;-79
2022/07/10 09:21:14;;;;;;;;;;;;;;;18.14;50.52;100464.45;108918;1269;21934;-78
2022/07/10 09:23:43;;;;;;;7.60;4.50;;;;;;;18.02;51.13;100460.27;108919;1270;21994;-79
2022/07/10 09:26:22;;;;;;;6.50;1.20;;;;;;;18.00;51.24;100460.17;109107;1259;22410;-77
2022/07/10 09:29:08;;;;;;;4.50;1.30;;;;;;;17.93;51.17;100459.89;110058;1261;22377;-80
2022/07/10 09:31:55;;;;;;;5.10;1.90;;;;;;;17.85;51.52;100455.81;109952;1261;22756;-79
2022/07/10 09:37:44;;;;;;;7.10;2.10;;;;;;;17.66;52.61;100455.09;109365;1264;23021;-79
2022/07/10 09:40:20;;;;;;;4.50;1.40;;;;;;;17.57;52.99;100451.29;108986;1267;23722;-78
2022/07/10 09:43:02;;;;;;;5.00;1.40;;;;;;;17.56;53.39;100448.95;108462;1273;22047;-79
2022/07/10 09:45:39;;;;;;;4.20;1.30;;;;;;;17.62;53.81;100448.07;108485;1273;22364;-79
2022/07/10 09:48:26;;;;;;;6.50;2.00;;;;;;;17.67;53.70;100452.52;108760;1273;21990;-79
2022/07/10 09:50:56;;;;;;;7.60;1.70;;;;;;;17.73;53.40;100450.07;108656;1274;23845;-79
2022/07/10 09:53:26;;;;;;;5.00;1.20;;;;;;;17.78;53.22;100447.82;108706;1273;23690;-79
2022/07/10 09:55:56;;;;;;;3.30;1.20;;;;;;;17.85;53.01;100449.77;108926;1270;21959;-77
2022/07/10 09:58:32;;;;;;;8.40;1.30;;;;;;;17.91;52.86;100447.71;109388;1263;22744;-78
2022/07/10 10:01:08;;;;;;;6.40;1.60;;;;;;;17.97;52.68;100447.56;109650;1263;24180;-78
2022/07/10 10:03:39;;;;;;;4.80;2.00;;;;;;;18.00;52.03;100447.21;109474;1262;21977;-78
2022/07/10 10:06:16;;;;;;;5.60;1.60;;;;;;;17.99;51.64;100450.14;108984;1267;22780;-79
2022/07/10 10:09:03;;;;;;;8.20;1.80;;;;;;;17.94;51.15;100449.55;109532;1264;22981;-78
2022/07/10 10:11:35;;;;;;;7.50;1.50;;;;;;;17.86;51.11;100449.71;109897;1261;22801;-78
2022/07/10 10:14:07;;;;;;;4.60;1.60;;;;;;;17.82;51.55;100452.04;109762;1259;23585;-78
2022/07/10 10:16:37;;;;;;;;;;;;;;;17.80;51.58;100456.48;109616;1261;21980;-78
2022/07/10 10:21:57;;;;;;;3.00;1.10;;;;;;;17.68;51.35;100458.33;110409;1258;21989;-78
2022/07/10 10:24:31;;;;;;;4.40;1.10;;;;;;;17.66;51.28;100455.48;109461;1260;21982;-79
2022/07/10 10:27:05;;;;;;;7.10;1.40;;;;;;;17.77;51.68;100454.28;110012;1261;23096;-79
2022/07/10 10:29:38;;;;;;;6.20;1.90;;;;;;;17.95;51.20;100450.17;110166;1260;22152;-80
2022/07/10 10:32:16;;;;;;;4.90;1.30;;;;;;;18.13;50.57;100450.27;110101;1261;23012;-79
2022/07/10 10:34:58;;;;;;;4.40;1.50;;;;;;;18.35;50.01;100450.95;109555;1264;21998;-76
2022/07/10 10:37:27;;;;;;;4.10;1.30;;;;;;;18.56;49.26;100447.39;109501;1262;22417;-77
2022/07/10 10:39:59;;;;;;;3.20;1.40;;;;;;;18.72;48.68;100442.13;109556;1264;22053;-79
2022/07/10 10:42:41;;;;;;;3.80;1.40;;;;;;;18.87;48.14;100442.63;109295;1262;23624;-79
2022/07/10 10:45:29;;;;;;;5.80;1.70;;;;;;;18.99;47.72;100445.77;109704;1261;22191;-78
2022/07/10 10:48:10;;;;;;;3.50;1.30;;;;;;;19.06;47.32;100446.14;109297;1266;23589;-78
2022/07/10 10:51:09;;;;;;;4.60;1.20;;;;;;;19.10;47.23;100453.44;109309;1264;21980;-76
2022/07/10 10:53:39;;;;;;;3.10;0.90;;;;;;;19.09;47.09;100460.25;109563;1265;21980;-80
2022/07/10 10:56:24;;;;;;;;;;;;;;;18.97;46.94;100460.06;109531;1265;21964;-80
2022/07/10 10:59:09;;;;;;;;;;;;;;;;;;;;;
2022/07/10 11:02:25;;;;;;;4.70;1.60;;;;;;;18.64;48.17;100461.77;109317;1267;21971;-80
2022/07/10 11:05:25;;;;;;;4.20;2.10;;;;;;;18.66;48.89;100458.21;109406;1267;22396;-80
2022/07/10 11:09:08;;;;;;;3.00;1.60;;;;;;;18.77;49.38;100455.09;109926;1264;23535;-80
2022/07/10 11:12:26;;;;;;;5.60;1.40;;;;;;;18.86;49.25;100454.63;109161;1268;22084;-79
2022/07/10 11:15:39;;;;;;;8.20;1.40;;;;;;;18.97;49.46;100452.25;108788;1270;21994;-79
2022/07/10 11:18:54;;;;;;;4.20;1.00;;;;;;;19.16;49.42;100445.30;109211;1267;22067;-80
2022/07/10 11:22:04;;;;;;;10.20;1.80;;;;;;;19.32;48.94;100442.95;109232;1267;23773;-79
2022/07/10 11:25:41;;;;;;;4.20;1.40;;;;;;;19.43;48.46;100442.46;109824;1260;22750;-79
2022/07/10 11:28:48;;;;;;;;;;;;;;;;;;;;;
2022/07/10 11:32:09;;;;;;;2.10;0.90;;;;;;;19.67;48.00;100432.42;111148;1250;21970;-80
2022/07/10 11:35:18;;;;;;;11.40;2.10;;;;;;;19.78;47.29;100426.23;110633;1256;21984;-79
2022/07/10 11:38:14;;;;;;;;;;;;;;;;;;;;;
2022/07/10 11:41:25;;;;;;;3.70;1.40;;;;;;;19.83;45.69;100426.63;110775;1256;21969;-79
2022/07/10 11:44:40;;;;;;;6.30;1.10;;;;;;;19.93;45.77;100427.55;110590;1256;21969;-79
2022/07/10 11:47:31;;;;;;;;;;;;;;;;;;;;;
2022/07/10 11:50:43;;;;;;;5.10;1.10;;;;;;;20.24;44.75;100420.19;110408;1256;22109;-80
2022/07/10 11:58:27;;;;;;;6.70;1.10;;;;;;;20.15;43.42;100425.92;110712;1257;22023;-80
2022/07/10 12:01:50;;;;;;;5.20;1.50;;;;;;;20.01;43.03;100430.59;110131;1259;23079;-79
2022/07/10 12:04:50;;;;;;;;;;;;;;;;;;;;;
2022/07/10 12:07:55;;;;;;;3.40;1.10;;;;;;;19.75;43.63;100431.51;110478;1257;21978;-79
2022/07/10 12:10:53;;;;;;;3.10;1.20;;;;;;;19.72;43.60;100429.77;110293;1257;23708;-79
2022/07/10 12:14:48;;;;;;;3.90;1.00;;;;;;;19.69;43.65;100437.77;110369;1257;21973;-80
2022/07/10 12:17:20;;;;;;;3.00;1.00;;;;;;;19.64;43.96;100434.56;109886;1264;21994;-79
2022/07/10 12:20:11;;;;;;;4.30;1.10;;;;;;;19.69;44.14;100434.60;109874;1263;21989;-79
2022/07/10 12:22:53;;;;;;;2.80;0.90;;;;;;;19.73;44.24;100438.52;109039;1270;22019;-79
2022/07/10 12:25:57;;;;;;;5.30;1.20;;;;;;;19.67;44.06;100434.12;108948;1272;23664;-80
2022/07/10 12:28:58;;;;;;;;;;;;;;;;;;;;;
2022/07/10 12:31:59;;;;;;;2.90;0.80;;;;;;;19.63;43.72;100439.77;108964;1273;22197;-79
2022/07/10 12:35:02;;;;;;;3.40;1.20;;;;;;;19.61;43.44;100439.08;108813;1273;22006;-79
2022/07/10 12:38:47;;;;;;;3.10;0.80;;;;;;;19.62;43.48;100432.80;108892;1273;23473;-81
2022/07/10 12:42:15;;;;;;;3.20;1.00;;;;;;;19.63;43.30;100428.64;108563;1273;23855;-80
2022/07/10 12:44:54;;;;;;;2.80;1.00;;;;;;;19.64;42.96;100423.80;108718;1274;23750;-79
2022/07/10 12:47:50;;;;;;;1.80;0.60;;;;;;;19.69;42.71;100423.20;108510;1273;23045;-79
2022/07/10 12:51:23;;;;;;;3.10;1.40;;;;;;;19.72;42.42;100428.32;109701;1257;24086;-79
2022/07/10 12:55:17;;;;;;;1.40;0.50;;;;;;;19.62;42.03;100425.51;110655;1256;21981;-80
2022/07/10 12:58:23;;;;;;;2.70;1.10;;;;;;;19.58;41.99;100420.27;110299;1256;23060;-80
2022/07/10 13:01:12;;;;;;;3.90;1.20;;;;;;;19.59;42.28;100420.96;110575;1257;24596;-80
2022/07/10 13:04:38;;;;;;;;;;;;;;;;;;;;;
2022/07/10 13:07:35;;;;;;;4.90;0.90;;;;;;;19.46;43.33;100411.27;110341;1256;23774;-80
2022/07/10 13:10:44;;;;;;;;;;;;;;;;;;;;;
2022/07/10 13:13:30;;;;;;;2.90;1.10;;;;;;;19.50;43.94;100422.30;110795;1253;21970;-79
2022/07/10 13:17:04;;;;;;;2.30;1.20;;;;;;;19.40;43.92;100428.15;110643;1258;21991;-79
2022/07/10 13:19:57;;;;;;;2.40;1.20;;;;;;;19.35;44.30;100431.19;110559;1256;22431;-80
2022/07/10 13:23:06;;;;;;;2.70;0.70;;;;;;;19.33;43.48;100427.87;110305;1256;21982;-81
2022/07/10 13:26:39;;;;;;;2.50;0.90;;;;;;;19.32;43.00;100426.84;109288;1265;21983;-79
2022/07/10 13:30:19;;;;;;;;;;;;;;;;;;;;;
2022/07/10 13:33:33;;;;;;;2.90;0.60;;;;;;;19.34;42.25;100426.45;109572;1260;23625;-79
2022/07/10 13:37:03;;;;;;;2.70;0.60;;;;;;;19.33;42.12;100421.64;110062;1262;22445;-80
2022/07/10 13:40:07;;;;;;;;;;;;;;;;;;;;;
2022/07/10 13:43:33;;;;;;;4.00;1.20;;;;;;;19.33;41.88;100418.02;109647;1262;21986;-79
2022/07/10 13:47:16;;;;;;;2.50;1.00;;;;;;;19.37;42.15;100412.48;109248;1267;21946;-78
2022/07/10 13:50:16;;;;;;;4.10;1.00;;;;;;;19.43;42.01;100422.75;109078;1267;21975;-79
2022/07/10 13:52:55;;;;;;;3.90;1.00;;;;;;;19.47;41.81;100421.35;108736;1271;22015;-80
2022/07/10 13:55:38;;;;;;;1.60;0.60;;;;;;;19.52;41.83;100424.34;108871;1270;23730;-81
2022/07/10 13:58:20;;;;;;;4.20;1.10;;;;;;;19.53;41.64;100426.64;108985;1272;22005;-80
2022/07/10 14:01:04;;;;;;;;;;;;;;;;;;;;;
2022/07/10 14:03:47;;;;;;;4.60;0.70;;;;;;;19.44;41.59;100423.73;109646;1259;22837;-85
2022/07/10 14:06:33;;;;;;;3.60;0.80;;;;;;;19.43;41.80;100425.15;110440;1256;23650;-80
2022/07/10 14:09:12;;;;;;;2.70;0.90;;;;;;;19.42;41.90;100420.84;110674;1256;22036;-82
2022/07/10 14:11:57;;;;;;;2.90;1.40;;;;;;;19.40;42.13;100422.39;109927;1260;21966;-83
2022/07/10 14:15:00;;;;;;;4.00;1.00;;;;;;;19.36;42.38;100425.56;110268;1259;23829;-81
2022/07/10 14:18:11;;;;;;;3.70;1.00;;;;;;;19.28;43.10;100432.29;110565;1253;22245;-83
2022/07/10 14:23:57;;;;;;;5.60;1.00;;;;;;;19.12;43.99;100425.22;110485;1259;22005;-83
2022/07/10 14:26:56;;;;;;;2.30;0.90;;;;;;;19.15;44.49;100431.89;110132;1258;23817;-83
2022/07/10 14:30:18;;;;;;;1.80;0.80;;;;;;;19.17;44.86;100429.11;110509;1257;21993;-85
2022/07/10 14:33:25;;;;;;;4.90;1.10;;;;;;;19.14;44.92;100428.64;109678;1264;22320;-84
2022/07/10 14:36:32;;;;;;;;;;;;;;;;;;;;;
2022/07/10 14:40:13;;;;;;;4.70;1.20;;;;;;;19.00;45.53;100438.67;110395;1260;23583;-83
2022/07/10 14:43:01;;;;;;;6.00;1.20;;;;;;;18.98;45.90;100436.80;109024;1272;23705;-84
2022/07/10 14:46:31;;;;;;;2.70;0.80;;;;;;;19.01;46.05;100430.34;109000;1272;21989;-82
2022/07/10 14:49:14;;;;;;;;;;;;;;;;;;;;;
2022/07/10 14:52:17;;;;;;;3.20;1.00;;;;;;;19.12;45.28;100433.73;109551;1267;21985;-84
2022/07/10 14:54:58;;;;;;;3.30;1.20;;;;;;;19.17;45.00;100436.35;109473;1267;24349;-83
2022/07/10 14:57:49;;;;;;;3.30;1.30;;;;;;;19.25;44.59;100436.44;109454;1267;23612;-82
2022/07/10 15:00:46;;;;;;;4.80;1.10;;;;;;;19.31;44.15;100433.77;109471;1265;23592;-82
2022/07/10 15:03:45;;;;;;;1.90;1.10;;;;;;;19.33;43.94;100435.28;109330;1265;22040;-83
2022/07/10 15:06:19;;;;;;;4.30;1.70;;;;;;;19.35;43.69;100440.25;109422;1267;22016;-83
2022/07/10 15:08:59;;;;;;;2.70;1.10;;;;;;;19.30;43.90;100442.23;109418;1264;22046;-82
2022/07/10 15:11:45;;;;;;;2.90;1.00;;;;;;;19.31;44.08;100440.98;109404;1266;23068;-81
2022/07/10 15:14:20;;;;;;;4.40;1.20;;;;;;;19.33;44.20;100449.09;109846;1260;22977;-82
2022/07/10 15:17:02;;;;;;;4.00;1.60;;;;;;;19.34;44.19;100450.14;110131;1260;21986;-81
2022/07/10 15:19:32;;;;;;;7.50;3.10;;;;;;;19.34;44.15;100453.65;110378;1254;23056;-81
2022/07/10 15:22:04;;;;;;;5.10;1.30;;;;;;;19.30;44.18;100470.70;110748;1254;21968;-82
2022/07/10 15:24:44;;;;;;;7.60;1.50;;;;;;;19.25;44.23;100515.71;110710;1254;21947;-82
2022/07/10 15:27:22;;;;;;;2.60;1.10;;;;;;;19.04;44.57;100513.92;110767;1254;21985;-85
2022/07/10 15:30:08;;;;;;;7.10;1.60;;;;;;;18.71;45.90;100509.35;110705;1254;23715;-82
2022/07/10 15:32:40;;;;;;;;;;;;;;;18.40;47.82;100515.64;110350;1257;22756;-82
2022/07/10 15:35:23;;;;;;;8.70;2.60;;;;;;;17.97;49.14;100515.77;110266;1260;22078;-82
2022/07/10 15:37:59;;;;;;;11.90;5.10;;;;;;;17.58;50.91;100515.07;109671;1265;22937;-80
2022/07/10 15:40:30;;;;;;;13.40;4.10;;;;;;;17.23;52.65;100515.13;110036;1262;21990;-82
2022/07/10 15:43:07;;;;;;;7.40;3.70;;;;;;;16.88;54.38;100517.19;109780;1264;22825;-81
2022/07/10 15:46:22;;;;;;;10.70;3.30;;;;;;;16.55;56.86;100516.48;109872;1265;22918;-80